Time;durP1;ratioP1;P1;durP2;ratioP2;P2;SDS_P1;SDS_P2;PMS_P1;PMS_P2;Temp;Humidity;BMP_temperature;BMP_pressure;BME280_temperature;BME280_humidity;BME280_pressure;Samples;Min_cycle;Max_cycle;Signal;HPM_P1;HPM_P2
2020/12/08 00:00:20;;;;;;;;;;;3.50;99.90;;;;;;4993520;28;19928;-76
2020/12/08 00:02:45;;;;;;;;;;;3.50;99.90;;;;;;5005152;28;19917;-76
2020/12/08 00:05:12;;;;;;;;;;;3.50;99.90;;;;;;5013814;28;20360;-76
2020/12/08 00:07:38;;;;;;;;;;;3.50;99.90;;;;;;4993895;28;19917;-76
2020/12/08 00:10:04;;;;;;;;;;;3.60;99.90;;;;;;4995726;28;19921;-76
2020/12/08 00:12:29;;;;;;;;;;;3.60;99.90;;;;;;4998606;28;19922;-76
2020/12/08 00:14:56;;;;;;;;;;;3.60;99.90;;;;;;4978387;28;19964;-76
2020/12/08 00:17:22;;;;;;;;;;;3.60;99.90;;;;;;4994613;28;19922;-77
2020/12/08 00:19:47;;;;;;;;;;;3.60;99.90;;;;;;4977224;28;19972;-77
2020/12/08 00:22:13;;;;;;;;;;;3.60;99.90;;;;;;4977189;28;19918;-76
2020/12/08 00:24:39;;;;;;;;;;;3.50;99.90;;;;;;4977310;28;19921;-77
2020/12/08 00:27:07;;;;;;;;;;;3.50;99.90;;;;;;4994518;28;19917;-77
2020/12/08 00:29:32;;;;;;;;;;;3.50;99.90;;;;;;4993343;28;20349;-76
2020/12/08 00:31:59;;;;;;;;;;;3.50;99.90;;;;;;4977224;28;19917;-76
2020/12/08 00:34:24;;;;;;;;;;;3.50;99.90;;;;;;4993160;28;19972;-76
2020/12/08 00:36:50;;;;;;;;;;;3.50;99.90;;;;;;4977110;28;20372;-76
2020/12/08 00:39:16;;;;;;;;;;;3.60;99.90;;;;;;4993111;28;20385;-77
2020/12/08 00:41:41;;;;;;;;;;;3.60;99.90;;;;;;4976614;28;19972;-76
2020/12/08 00:44:07;;;;;;;;;;;3.60;99.90;;;;;;4993107;28;19941;-76
2020/12/08 00:46:32;;;;;;;;;;;3.60;99.90;;;;;;4994411;28;19925;-76
2020/12/08 00:48:59;;;;;;;;;;;3.70;99.90;;;;;;4994298;28;19921;-76
2020/12/08 00:51:25;;;;;;;;;;;3.70;99.90;;;;;;4992783;28;19953;-76
2020/12/08 00:53:50;;;;;;;;;;;3.70;99.90;;;;;;4976930;28;19960;-76
2020/12/08 00:56:16;;;;;;;;;;;3.80;99.90;;;;;;4993005;28;19964;-76
2020/12/08 00:58:41;;;;;;;;;;;3.80;99.90;;;;;;4994294;28;20439;-76
2020/12/08 01:01:08;;;;;;;;;;;3.70;99.90;;;;;;4976754;28;19918;-76
2020/12/08 01:03:36;;;;;;;;;;;3.70;99.90;;;;;;4994548;28;19917;-76
2020/12/08 01:06:03;;;;;;;;;;;3.50;99.90;;;;;;4993040;28;19924;-76
2020/12/08 01:08:29;;;;;;;;;;;3.50;99.90;;;;;;4994064;28;19921;-76
2020/12/08 01:10:55;;;;;;;;;;;3.40;99.90;;;;;;4976682;28;20266;-76
2020/12/08 01:13:21;;;;;;;;;;;3.40;99.90;;;;;;4992864;28;19922;-76
2020/12/08 01:15:47;;;;;;;;;;;3.40;99.90;;;;;;4993015;28;19964;-76
2020/12/08 01:18:13;;;;;;;;;;;3.30;99.90;;;;;;4994241;28;19918;-76
2020/12/08 01:20:39;;;;;;;;;;;3.40;99.90;;;;;;4994073;28;19917;-76
2020/12/08 01:23:05;;;;;;;;;;;3.40;99.90;;;;;;4994216;28;19967;-76
2020/12/08 01:25:32;;;;;;;;;;;3.40;99.90;;;;;;4994015;28;19922;-76
2020/12/08 01:27:58;;;;;;;;;;;3.40;99.90;;;;;;4994099;28;19977;-77
2020/12/08 01:30:24;;;;;;;;;;;3.40;99.90;;;;;;4992663;28;19930;-76
2020/12/08 01:32:49;;;;;;;;;;;3.40;99.90;;;;;;4994091;28;19984;-77
2020/12/08 01:35:17;;;;;;;;;;;3.40;99.90;;;;;;4992863;28;19949;-76
2020/12/08 01:37:43;;;;;;;;;;;3.40;99.90;;;;;;4992681;28;20301;-76
2020/12/08 01:40:10;;;;;;;;;;;3.40;99.90;;;;;;4976643;28;19917;-76
2020/12/08 01:42:35;;;;;;;;;;;3.40;99.90;;;;;;4992652;28;19930;-76
2020/12/08 01:45:01;;;;;;;;;;;3.40;99.90;;;;;;4992729;28;19924;-76
2020/12/08 01:47:27;;;;;;;;;;;3.40;99.90;;;;;;4992675;28;20004;-76
2020/12/08 01:49:53;;;;;;;;;;;3.40;99.90;;;;;;4992676;28;19922;-76
2020/12/08 01:52:19;;;;;;;;;;;3.30;99.90;;;;;;4993798;28;20445;-76
2020/12/08 01:54:46;;;;;;;;;;;3.20;99.90;;;;;;4994666;28;20393;-76
2020/12/08 01:57:12;;;;;;;;;;;3.20;99.90;;;;;;4997378;28;19918;-76
2020/12/08 01:59:38;;;;;;;;;;;3.20;99.90;;;;;;4997164;28;19944;-76
2020/12/08 02:02:04;;;;;;;;;;;3.20;99.90;;;;;;4996462;28;19918;-76
2020/12/08 02:04:30;;;;;;;;;;;3.20;99.90;;;;;;5024310;22;19922;-78
2020/12/08 02:06:55;;;;;;;;;;;3.20;99.90;;;;;;4999027;28;19928;-78
2020/12/08 02:09:21;;;;;;;;;;;3.20;99.90;;;;;;5016784;28;19924;-78
2020/12/08 02:11:47;;;;;;;;;;;3.20;99.90;;;;;;5015357;28;19929;-78
2020/12/08 02:14:13;;;;;;;;;;;3.20;99.90;;;;;;5012879;28;19921;-78
2020/12/08 02:16:39;;;;;;;;;;;3.30;99.90;;;;;;4999059;28;19925;-78
2020/12/08 02:19:05;;;;;;;;;;;3.30;99.90;;;;;;5022378;28;20376;-78
2020/12/08 02:21:33;;;;;;;;;;;3.30;99.90;;;;;;5016662;28;19921;-78
2020/12/08 02:23:58;;;;;;;;;;;3.30;99.90;;;;;;4998972;28;20339;-78
2020/12/08 02:26:24;;;;;;;;;;;3.30;99.90;;;;;;5026319;28;19924;-78
2020/12/08 02:28:50;;;;;;;;;;;3.30;99.90;;;;;;5001800;28;19921;-78
2020/12/08 02:31:15;;;;;;;;;;;3.30;99.90;;;;;;5016409;28;20423;-78
2020/12/08 02:33:41;;;;;;;;;;;3.30;99.90;;;;;;5007775;28;20430;-78
2020/12/08 02:36:07;;;;;;;;;;;3.30;99.90;;;;;;5020924;28;19917;-78
2020/12/08 02:38:33;;;;;;;;;;;3.40;99.90;;;;;;5020804;28;19917;-78
2020/12/08 02:40:59;;;;;;;;;;;3.40;99.90;;;;;;5007575;28;19921;-78
2020/12/08 02:43:25;;;;;;;;;;;3.30;99.90;;;;;;5016185;28;19984;-78
2020/12/08 02:45:50;;;;;;;;;;;3.30;99.90;;;;;;5016466;28;19917;-78
2020/12/08 02:48:16;;;;;;;;;;;3.30;99.90;;;;;;5027093;28;19919;-78
2020/12/08 02:50:42;;;;;;;;;;;3.40;99.90;;;;;;4998747;28;19928;-78
2020/12/08 02:53:07;;;;;;;;;;;3.40;99.90;;;;;;5017466;28;19921;-78
2020/12/08 02:55:35;;;;;;;;;;;3.40;99.90;;;;;;5034586;28;20015;-78
2020/12/08 02:58:00;;;;;;;;;;;3.50;99.90;;;;;;5017031;28;20012;-78
2020/12/08 03:00:26;;;;;;;;;;;3.50;99.90;;;;;;5016230;28;19956;-78
2020/12/08 03:02:52;;;;;;;;;;;3.50;99.90;;;;;;5014522;28;19964;-78
2020/12/08 03:05:17;;;;;;;;;;;3.50;99.90;;;;;;4997784;28;19924;-79
2020/12/08 03:07:43;;;;;;;;;;;3.50;99.90;;;;;;4998067;28;19956;-78
2020/12/08 03:10:08;;;;;;;;;;;3.60;99.90;;;;;;5014442;28;19967;-79
2020/12/08 03:12:36;;;;;;;;;;;3.60;99.90;;;;;;5014482;28;19928;-78
2020/12/08 03:15:05;;;;;;;;;;;3.60;99.90;;;;;;5028219;28;19929;-78
2020/12/08 03:17:30;;;;;;;;;;;3.60;99.90;;;;;;4998132;28;19922;-78
2020/12/08 03:19:56;;;;;;;;;;;3.60;99.90;;;;;;5009928;28;20013;-78
2020/12/08 03:22:22;;;;;;;;;;;3.70;99.90;;;;;;4998027;28;19933;-77
2020/12/08 03:24:48;;;;;;;;;;;3.70;99.90;;;;;;5014373;28;19917;-78
2020/12/08 03:27:14;;;;;;;;;;;3.70;99.90;;;;;;5019660;28;19923;-78
2020/12/08 03:29:41;;;;;;;;;;;3.80;99.90;;;;;;5017358;28;20374;-78
2020/12/08 03:32:06;;;;;;;;;;;3.70;99.90;;;;;;5017596;28;19921;-78
2020/12/08 03:34:32;;;;;;;;;;;3.80;99.90;;;;;;4997706;28;19917;-78
2020/12/08 03:36:58;;;;;;;;;;;3.80;99.90;;;;;;5015240;28;20408;-78
2020/12/08 03:39:25;;;;;;;;;;;3.90;99.90;;;;;;5022802;28;20387;-78
2020/12/08 03:41:51;;;;;;;;;;;3.90;99.90;;;;;;5020832;28;20016;-78
2020/12/08 03:44:16;;;;;;;;;;;3.90;99.90;;;;;;4984214;28;19953;-78
2020/12/08 03:46:43;;;;;;;;;;;3.90;99.90;;;;;;4997512;28;19940;-78
2020/12/08 03:49:08;;;;;;;;;;;3.80;99.90;;;;;;5016561;28;19971;-79
2020/12/08 03:51:34;;;;;;;;;;;3.80;99.90;;;;;;5005052;28;19917;-78
2020/12/08 03:54:00;;;;;;;;;;;3.80;99.90;;;;;;5009974;28;19924;-78
2020/12/08 03:56:25;;;;;;;;;;;3.80;99.90;;;;;;5013842;28;19917;-78
2020/12/08 03:58:51;;;;;;;;;;;3.70;99.90;;;;;;4997340;28;19917;-78
2020/12/08 04:01:17;;;;;;;;;;;3.70;99.90;;;;;;5032371;28;20334;-78
2020/12/08 04:03:45;;;;;;;;;;;3.70;99.90;;;;;;5019122;28;19975;-78
2020/12/08 04:06:12;;;;;;;;;;;3.70;99.90;;;;;;4980254;28;19928;-79
2020/12/08 04:08:39;;;;;;;;;;;3.70;99.90;;;;;;4984798;28;19960;-78
2020/12/08 04:11:05;;;;;;;;;;;3.80;99.90;;;;;;4974313;28;19922;-78
2020/12/08 04:13:31;;;;;;;;;;;3.80;99.90;;;;;;4998004;28;19972;-78
2020/12/08 04:15:56;;;;;;;;;;;3.80;99.90;;;;;;4980267;28;19925;-78
2020/12/08 04:18:22;;;;;;;;;;;3.80;99.90;;;;;;4973787;28;19950;-78
2020/12/08 04:20:49;;;;;;;;;;;3.80;99.90;;;;;;4974274;28;19922;-78
2020/12/08 04:23:15;;;;;;;;;;;3.90;99.90;;;;;;4957206;28;19969;-78
2020/12/08 04:25:41;;;;;;;;;;;3.90;99.90;;;;;;4977576;28;19918;-78
2020/12/08 04:28:07;;;;;;;;;;;3.80;99.90;;;;;;4974290;28;19977;-79
2020/12/08 04:30:33;;;;;;;;;;;3.80;99.90;;;;;;4974127;28;20404;-78
2020/12/08 04:32:59;;;;;;;;;;;3.70;99.90;;;;;;4987670;28;20293;-79
2020/12/08 04:35:24;;;;;;;;;;;3.60;99.90;;;;;;4974286;28;19925;-79
2020/12/08 04:37:51;;;;;;;;;;;3.60;99.90;;;;;;4986846;28;19918;-79
2020/12/08 04:40:16;;;;;;;;;;;3.60;99.90;;;;;;4979799;28;19929;-79
2020/12/08 04:42:43;;;;;;;;;;;3.60;99.90;;;;;;4966392;28;19921;-79
2020/12/08 04:45:08;;;;;;;;;;;3.60;99.90;;;;;;4978909;28;19965;-79
2020/12/08 04:47:35;;;;;;;;;;;3.60;99.90;;;;;;5001960;28;20005;-79
2020/12/08 04:50:01;;;;;;;;;;;3.60;99.90;;;;;;4983870;28;20012;-80
2020/12/08 04:52:26;;;;;;;;;;;3.60;99.90;;;;;;4993609;28;19925;-80
2020/12/08 04:54:53;;;;;;;;;;;3.60;99.90;;;;;;4986863;28;19918;-79
2020/12/08 04:57:19;;;;;;;;;;;3.70;99.90;;;;;;4960386;28;19933;-80
2020/12/08 04:59:44;;;;;;;;;;;3.70;99.90;;;;;;4973936;28;19918;-79
2020/12/08 05:02:10;;;;;;;;;;;3.70;99.90;;;;;;4978347;28;19926;-79
2020/12/08 05:04:35;;;;;;;;;;;3.70;99.90;;;;;;4986554;28;19972;-79
2020/12/08 05:07:02;;;;;;;;;;;3.70;99.90;;;;;;5009728;28;20012;-79
2020/12/08 05:09:29;;;;;;;;;;;3.70;99.90;;;;;;4993191;28;20381;-79
2020/12/08 05:11:56;;;;;;;;;;;3.70;99.90;;;;;;5009558;28;19972;-79
2020/12/08 05:14:22;;;;;;;;;;;3.70;99.90;;;;;;5023216;28;19921;-79
2020/12/08 05:16:47;;;;;;;;;;;3.70;99.90;;;;;;4993144;28;20297;-79
2020/12/08 05:19:13;;;;;;;;;;;3.70;99.90;;;;;;4993188;28;19918;-79
2020/12/08 05:21:46;;;;;;;;;;;3.70;99.90;;;;;;4993078;28;20008;-79
2020/12/08 05:24:20;;;;;;;;;;;3.70;99.90;;;;;;5009445;28;19925;-79
2020/12/08 05:26:52;;;;;;;;;;;3.70;99.90;;;;;;4983881;28;19917;-79
2020/12/08 05:29:20;;;;;;;;;;;3.70;99.90;;;;;;5004629;28;19925;-79
2020/12/08 05:31:46;;;;;;;;;;;3.70;99.90;;;;;;5001693;28;19921;-79
2020/12/08 05:34:16;;;;;;;;;;;3.70;99.90;;;;;;5016394;28;19917;-79
2020/12/08 05:36:46;;;;;;;;;;;3.70;99.90;;;;;;5000165;28;19940;-79
2020/12/08 05:39:13;;;;;;;;;;;3.60;99.90;;;;;;5013084;28;19917;-79
2020/12/08 05:41:42;;;;;;;;;;;3.60;99.90;;;;;;4997858;28;19928;-79
2020/12/08 05:44:09;;;;;;;;;;;3.60;99.90;;;;;;5000323;28;19976;-78
2020/12/08 05:46:43;;;;;;;;;;;3.50;99.90;;;;;;5006440;28;19918;-79
2020/12/08 05:49:13;;;;;;;;;;;3.50;99.90;;;;;;4996271;28;20380;-79
2020/12/08 05:51:54;;;;;;;;;;;3.50;99.90;;;;;;5012938;28;19968;-79
2020/12/08 05:54:20;;;;;;;;;;;3.40;99.90;;;;;;5012523;28;19961;-78
2020/12/08 05:56:46;;;;;;;;;;;3.30;99.90;;;;;;5022302;28;19917;-78
2020/12/08 05:59:23;;;;;;;;;;;3.30;99.90;;;;;;5015860;28;19925;-79
2020/12/08 06:01:49;;;;;;;;;;;;;;;;;;5006868;28;19926;-79
2020/12/08 06:04:15;;;;;;;;;;;;;;;;;;5027406;28;19983;-79
2020/12/08 06:06:48;;;;;;;;;;;3.30;99.90;;;;;;5008618;28;19906;-79
2020/12/08 06:09:29;;;;;;;;;;;3.10;99.90;;;;;;5012317;28;19925;-78
2020/12/08 06:11:55;;;;;;;;;;;;;;;;;;5004271;28;19928;-78
2020/12/08 06:14:33;;;;;;;;;;;3.00;99.90;;;;;;5001633;28;19905;-79
2020/12/08 06:17:05;;;;;;;;;;;2.90;99.90;;;;;;4995992;28;19921;-78
2020/12/08 06:19:31;;;;;;;;;;;2.80;99.90;;;;;;5026885;28;19918;-78
2020/12/08 06:21:58;;;;;;;;;;;2.90;99.90;;;;;;5008790;28;19918;-79
2020/12/08 06:24:24;;;;;;;;;;;2.80;99.90;;;;;;5012157;28;19922;-78
2020/12/08 06:26:49;;;;;;;;;;;2.80;99.90;;;;;;4990853;28;19918;-78
2020/12/08 06:29:16;;;;;;;;;;;2.90;99.90;;;;;;4988722;28;19918;-78
2020/12/08 06:31:42;;;;;;;;;;;2.90;99.90;;;;;;5015176;28;20412;-80
2020/12/08 06:34:10;;;;;;;;;;;2.90;99.90;;;;;;5006215;28;20013;-78
2020/12/08 06:36:36;;;;;;;;;;;2.90;99.90;;;;;;5012079;28;20289;-78
2020/12/08 06:39:04;;;;;;;;;;;3.00;99.90;;;;;;4995446;28;19918;-78
2020/12/08 06:41:30;;;;;;;;;;;3.10;99.90;;;;;;5015340;28;19964;-79
2020/12/08 06:43:55;;;;;;;;;;;3.10;99.90;;;;;;4997005;28;19925;-78
2020/12/08 06:46:21;;;;;;;;;;;3.20;99.90;;;;;;4995479;28;19918;-78
2020/12/08 06:48:57;;;;;;;;;;;3.20;99.90;;;;;;5005873;28;20004;-78
2020/12/08 06:51:23;;;;;;;;;;;3.20;99.90;;;;;;4995420;28;19925;-79
2020/12/08 06:53:49;;;;;;;;;;;3.20;99.90;;;;;;5011773;28;19926;-78
2020/12/08 06:56:18;;;;;;;;;;;3.20;99.90;;;;;;5010984;28;19917;-78
2020/12/08 06:58:46;;;;;;;;;;;3.20;99.90;;;;;;5006838;28;19921;-78
2020/12/08 07:01:12;;;;;;;;;;;3.20;99.90;;;;;;4996876;28;19924;-78
2020/12/08 07:03:38;;;;;;;;;;;3.20;99.90;;;;;;5001634;28;19917;-78
2020/12/08 07:06:04;;;;;;;;;;;3.20;99.90;;;;;;4995136;28;19922;-80
2020/12/08 07:08:30;;;;;;;;;;;3.10;99.90;;;;;;5011296;28;19972;-78
2020/12/08 07:10:56;;;;;;;;;;;3.10;99.90;;;;;;5025073;28;19921;-79
2020/12/08 07:13:22;;;;;;;;;;;3.10;99.90;;;;;;5001072;28;19928;-78
2020/12/08 07:15:48;;;;;;;;;;;3.10;99.90;;;;;;5002448;28;19929;-78
2020/12/08 07:18:13;;;;;;;;;;;3.20;99.90;;;;;;4995764;28;19917;-78
2020/12/08 07:20:39;;;;;;;;;;;3.20;99.90;;;;;;4994915;28;19945;-78
2020/12/08 07:23:06;;;;;;;;;;;3.20;99.90;;;;;;5009772;28;19925;-78
2020/12/08 07:25:32;;;;;;;;;;;3.10;99.90;;;;;;5004390;28;19924;-78
2020/12/08 07:27:58;;;;;;;;;;;3.20;99.90;;;;;;5013978;28;19917;-78
2020/12/08 07:30:26;;;;;;;;;;;3.20;99.90;;;;;;4994531;28;19918;-78
2020/12/08 07:32:52;;;;;;;;;;;3.20;99.90;;;;;;5010896;28;20377;-78
2020/12/08 07:35:19;;;;;;;;;;;3.20;99.90;;;;;;4995887;28;19917;-78
2020/12/08 07:37:45;;;;;;;;;;;3.20;99.90;;;;;;5005254;28;19918;-78
2020/12/08 07:40:12;;;;;;;;;;;3.20;99.90;;;;;;4997485;28;19964;-78
2020/12/08 07:42:37;;;;;;;;;;;3.20;99.90;;;;;;5029809;28;20336;-78
2020/12/08 07:45:06;;;;;;;;;;;3.30;99.90;;;;;;5003033;28;19918;-78
2020/12/08 07:47:34;;;;;;;;;;;3.30;99.90;;;;;;4995701;28;20408;-78
2020/12/08 07:49:59;;;;;;;;;;;3.30;99.90;;;;;;5010465;28;19925;-78
2020/12/08 07:52:25;;;;;;;;;;;3.30;99.90;;;;;;5025167;28;19924;-78
2020/12/08 07:54:51;;;;;;;;;;;3.40;99.90;;;;;;5013777;28;20004;-78
2020/12/08 07:57:16;;;;;;;;;;;3.40;99.90;;;;;;5000066;28;19918;-78
2020/12/08 07:59:42;;;;;;;;;;;3.50;99.90;;;;;;5010301;28;19917;-78
2020/12/08 08:02:07;;;;;;;;;;;3.50;99.90;;;;;;5005687;28;20324;-78
2020/12/08 08:04:34;;;;;;;;;;;3.50;99.90;;;;;;5009746;28;20034;-78
2020/12/08 08:07:00;;;;;;;;;;;3.60;99.90;;;;;;5020036;28;20380;-78
2020/12/08 08:09:25;;;;;;;;;;;3.60;99.90;;;;;;4998778;28;19924;-77
2020/12/08 08:11:51;;;;;;;;;;;3.60;99.90;;;;;;4993709;28;19918;-77
2020/12/08 08:14:17;;;;;;;;;;;3.60;99.90;;;;;;5004085;28;19917;-77
2020/12/08 08:16:42;;;;;;;;;;;3.60;99.90;;;;;;5007585;28;19918;-77
2020/12/08 08:19:08;;;;;;;;;;;3.60;99.90;;;;;;4993823;28;20013;-77
2020/12/08 08:21:34;;;;;;;;;;;3.70;99.90;;;;;;4998680;28;19961;-77
2020/12/08 08:24:00;;;;;;;;;;;3.70;99.90;;;;;;4992005;28;19929;-77
2020/12/08 08:26:26;;;;;;;;;;;3.80;99.90;;;;;;4991524;28;20373;-77
2020/12/08 08:28:52;;;;;;;;;;;3.80;99.90;;;;;;4998251;28;20361;-77
2020/12/08 08:31:17;;;;;;;;;;;3.90;99.90;;;;;;5009706;28;20016;-78
2020/12/08 08:33:43;;;;;;;;;;;4.00;99.90;;;;;;4995618;28;19917;-78
2020/12/08 08:36:09;;;;;;;;;;;4.00;99.90;;;;;;5012816;28;19965;-80
2020/12/08 08:38:35;;;;;;;;;;;4.10;99.90;;;;;;5017651;28;19968;-78
2020/12/08 08:41:01;;;;;;;;;;;4.10;99.90;;;;;;5004511;28;19971;-78
2020/12/08 08:43:27;;;;;;;;;;;4.10;99.90;;;;;;5016702;28;19917;-78
2020/12/08 08:45:53;;;;;;;;;;;4.20;99.90;;;;;;5026024;28;19922;-77
2020/12/08 08:48:19;;;;;;;;;;;4.30;99.90;;;;;;5022166;28;19949;-78
2020/12/08 08:50:45;;;;;;;;;;;4.30;99.90;;;;;;4999296;28;20492;-78
2020/12/08 08:53:11;;;;;;;;;;;4.40;99.90;;;;;;5013626;28;19945;-78
2020/12/08 08:55:38;;;;;;;;;;;4.40;99.90;;;;;;5005855;28;19925;-78
2020/12/08 08:58:04;;;;;;;;;;;4.40;99.90;;;;;;4994015;28;20452;-78
2020/12/08 09:00:30;;;;;;;;;;;;;;;;;;4993863;28;19924;-78
2020/12/08 09:02:58;;;;;;;;;;;;;;;;;;4995387;28;19906;-77
2020/12/08 09:05:24;;;;;;;;;;;;;;;;;;4997222;28;20271;-77
2020/12/08 09:07:50;;;;;;;;;;;;;;;;;;4996100;28;19955;-78
2020/12/08 09:10:15;;;;;;;;;;;4.50;99.90;;;;;;4997103;28;19910;-78
2020/12/08 09:12:42;;;;;;;;;;;4.80;99.90;;;;;;5013608;28;20348;-78
2020/12/08 09:15:09;;;;;;;;;;;4.70;99.90;;;;;;5013314;28;20370;-78
2020/12/08 09:17:34;;;;;;;;;;;4.70;99.90;;;;;;5010493;28;19918;-78
2020/12/08 09:20:00;;;;;;;;;;;4.70;99.90;;;;;;4997054;28;20456;-78
2020/12/08 09:22:26;;;;;;;;;;;4.70;99.90;;;;;;4980934;28;19925;-78
2020/12/08 09:24:51;;;;;;;;;;;4.60;99.90;;;;;;5013392;28;19917;-78
2020/12/08 09:27:17;;;;;;;;;;;4.60;99.90;;;;;;4998056;28;20373;-78
2020/12/08 09:29:44;;;;;;;;;;;4.60;99.90;;;;;;5012816;28;19960;-78
2020/12/08 09:32:10;;;;;;;;;;;4.60;99.90;;;;;;4994459;28;19921;-78
2020/12/08 09:34:36;;;;;;;;;;;4.70;99.90;;;;;;5012623;28;19945;-78
2020/12/08 09:37:04;;;;;;;;;;;4.70;99.90;;;;;;5013174;28;19917;-78
2020/12/08 09:39:30;;;;;;;;;;;4.80;99.90;;;;;;4996746;28;20000;-78
2020/12/08 09:41:56;;;;;;;;;;;4.80;99.90;;;;;;5012569;28;20032;-78
2020/12/08 09:44:22;;;;;;;;;;;4.80;99.90;;;;;;4989309;28;19918;-78
2020/12/08 09:46:49;;;;;;;;;;;4.90;99.90;;;;;;4998034;28;19917;-78
2020/12/08 09:49:14;;;;;;;;;;;4.90;99.90;;;;;;5012758;28;19976;-78
2020/12/08 09:51:40;;;;;;;;;;;5.00;99.90;;;;;;5001861;28;19969;-79
2020/12/08 09:54:06;;;;;;;;;;;5.10;99.90;;;;;;4993246;28;19924;-78
2020/12/08 09:56:32;;;;;;;;;;;5.20;99.90;;;;;;5013505;28;20005;-78
2020/12/08 09:58:58;;;;;;;;;;;5.30;99.90;;;;;;4988951;28;20392;-78
2020/12/08 10:01:24;;;;;;;;;;;5.30;99.90;;;;;;4997420;28;20293;-78
2020/12/08 10:03:51;;;;;;;;;;;5.40;99.90;;;;;;4999513;28;19953;-78
2020/12/08 10:06:16;;;;;;;;;;;5.40;99.90;;;;;;4999018;28;19933;-78
2020/12/08 10:08:42;;;;;;;;;;;;;;;;;;4999596;28;19972;-77
2020/12/08 10:11:08;;;;;;;;;;;5.50;99.90;;;;;;4999374;28;19920;-78
2020/12/08 10:13:34;;;;;;;;;;;5.60;99.90;;;;;;5003227;28;19917;-78
2020/12/08 10:15:59;;;;;;;;;;;5.60;99.90;;;;;;5003068;28;19928;-77
2020/12/08 10:18:25;;;;;;;;;;;5.60;99.90;;;;;;5004283;28;20019;-77
2020/12/08 10:20:51;;;;;;;;;;;5.60;99.90;;;;;;5020449;28;20007;-77
2020/12/08 10:23:17;;;;;;;;;;;5.60;99.90;;;;;;5037269;28;19921;-77
2020/12/08 10:25:43;;;;;;;;;;;5.60;99.90;;;;;;5013931;28;19971;-77
2020/12/08 10:28:08;;;;;;;;;;;5.50;99.90;;;;;;5002572;28;19917;-77
2020/12/08 10:30:34;;;;;;;;;;;5.50;99.90;;;;;;5005508;28;19921;-78
2020/12/08 10:33:00;;;;;;;;;;;5.50;99.90;;;;;;5005220;28;20012;-78
2020/12/08 10:35:25;;;;;;;;;;;5.60;99.90;;;;;;5023887;28;19925;-78
2020/12/08 10:37:52;;;;;;;;;;;5.60;99.90;;;;;;5006662;28;19948;-78
2020/12/08 10:40:18;;;;;;;;;;;5.60;99.90;;;;;;5010556;28;19929;-78
2020/12/08 10:42:44;;;;;;;;;;;5.70;99.90;;;;;;5007666;28;19917;-78
2020/12/08 10:45:10;;;;;;;;;;;;;;;;;;5014636;28;20403;-77
2020/12/08 10:47:35;;;;;;;;;;;;;;;;;;5003039;28;19949;-77
2020/12/08 10:50:01;;;;;;;;;;;;;;;;;;5015967;28;19913;-78
2020/12/08 10:52:27;;;;;;;;;;;;;;;;;;5016513;28;19909;-78
2020/12/08 10:54:53;;;;;;;;;;;;;;;;;;5023589;28;20000;-78
2020/12/08 10:57:19;;;;;;;;;;;;;;;;;;5022355;28;19972;-79
2020/12/08 10:59:45;;;;;;;;;;;;;;;;;;5022508;28;19999;-78
2020/12/08 11:02:11;;;;;;;;;;;;;;;;;;5022019;28;19912;-79
2020/12/08 11:04:37;;;;;;;;;;;;;;;;;;5015065;28;19936;-78
2020/12/08 11:07:03;;;;;;;;;;;;;;;;;;5004285;28;19910;-78
2020/12/08 11:09:29;;;;;;;;;;;;;;;;;;5019420;28;20006;-78
2020/12/08 11:11:55;;;;;;;;;;;;;;;;;;5004871;28;19905;-78
2020/12/08 11:14:21;;;;;;;;;;;;;;;;;;5016665;28;19996;-78
2020/12/08 11:16:46;;;;;;;;;;;;;;;;;;5016835;28;19912;-78
2020/12/08 11:19:12;;;;;;;;;;;;;;;;;;5019880;28;19906;-78
2020/12/08 11:21:39;;;;;;;;;;;;;;;;;;5017663;28;19906;-79
2020/12/08 11:24:05;;;;;;;;;;;;;;;;;;5005925;28;19905;-78
2020/12/08 11:26:32;;;;;;;;;;;;;;;;;;5036140;28;20012;-78
2020/12/08 11:28:58;;;;;;;;;;;;;;;;;;5029717;28;19905;-79
2020/12/08 11:31:24;;;;;;;;;;;;;;;;;;5010801;28;19998;-78
2020/12/08 11:33:50;;;;;;;;;;;;;;;;;;5005956;28;20368;-78
2020/12/08 11:36:15;;;;;;;;;;;;;;;;;;5021932;28;19905;-78
2020/12/08 11:38:41;;;;;;;;;;;;;;;;;;5014408;28;19905;-79
2020/12/08 11:41:07;;;;;;;;;;;;;;;;;;5013440;28;19932;-78
2020/12/08 11:43:35;;;;;;;;;;;;;;;;;;5037172;28;19905;-78
2020/12/08 11:46:01;;;;;;;;;;;;;;;;;;5019943;28;20328;-78
2020/12/08 11:48:27;;;;;;;;;;;;;;;;;;5031476;28;19956;-78
2020/12/08 11:50:53;;;;;;;;;;;;;;;;;;5007889;28;19909;-78
2020/12/08 11:53:19;;;;;;;;;;;;;;;;;;5023974;28;19979;-78
2020/12/08 11:55:45;;;;;;;;;;;;;;;;;;5019459;28;19929;-78
2020/12/08 11:58:11;;;;;;;;;;;;;;;;;;5014326;28;20376;-78
2020/12/08 12:00:37;;;;;;;;;;;;;;;;;;5004371;28;19913;-78
2020/12/08 12:03:03;;;;;;;;;;;;;;;;;;5000395;28;19905;-78
2020/12/08 12:05:29;;;;;;;;;;;;;;;;;;5009695;28;20012;-78
2020/12/08 12:07:55;;;;;;;;;;;;;;;;;;5024143;28;19937;-78
2020/12/08 12:10:21;;;;;;;;;;;5.70;99.90;;;;;;5021401;28;19909;-78
2020/12/08 12:12:47;;;;;;;;;;;5.20;99.90;;;;;;5012944;28;19921;-78
2020/12/08 12:15:12;;;;;;;;;;;5.20;99.90;;;;;;5020343;28;20016;-78
2020/12/08 12:17:38;;;;;;;;;;;5.20;99.90;;;;;;5004811;28;19952;-78
2020/12/08 12:20:04;;;;;;;;;;;5.20;99.90;;;;;;5023191;28;19940;-77
2020/12/08 12:22:30;;;;;;;;;;;5.20;99.90;;;;;;5005764;28;19929;-77
2020/12/08 12:24:55;;;;;;;;;;;5.20;99.90;;;;;;5021385;28;19918;-78
2020/12/08 12:27:22;;;;;;;;;;;5.30;99.90;;;;;;5019767;28;19917;-78
2020/12/08 12:29:48;;;;;;;;;;;5.30;99.90;;;;;;5009681;28;19968;-78
2020/12/08 12:32:14;;;;;;;;;;;5.20;99.90;;;;;;5017040;28;19918;-77
2020/12/08 12:34:40;;;;;;;;;;;5.20;99.90;;;;;;5012100;28;19984;-78
2020/12/08 12:37:06;;;;;;;;;;;5.20;99.90;;;;;;5026099;28;19932;-78
2020/12/08 12:39:31;;;;;;;;;;;5.30;99.90;;;;;;5026391;28;19918;-77
2020/12/08 12:41:57;;;;;;;;;;;5.30;99.90;;;;;;5009006;28;20000;-78
2020/12/08 12:44:23;;;;;;;;;;;5.30;99.90;;;;;;5012400;28;19917;-77
2020/12/08 12:46:50;;;;;;;;;;;5.30;99.90;;;;;;5039861;28;19925;-78
2020/12/08 12:49:16;;;;;;;;;;;5.40;99.90;;;;;;5026043;28;19928;-78
2020/12/08 12:51:41;;;;;;;;;;;5.50;99.90;;;;;;5008641;28;19926;-78
2020/12/08 12:54:07;;;;;;;;;;;5.50;99.90;;;;;;5016431;28;19924;-78
2020/12/08 12:56:33;;;;;;;;;;;5.50;99.90;;;;;;5009252;28;19917;-78
2020/12/08 12:58:58;;;;;;;;;;;5.40;99.90;;;;;;5027237;28;19917;-78
2020/12/08 13:01:25;;;;;;;;;;;5.40;99.90;;;;;;5020198;28;20016;-77
2020/12/08 13:03:51;;;;;;;;;;;5.40;99.90;;;;;;5029864;28;20365;-78
2020/12/08 13:06:16;;;;;;;;;;;5.50;99.90;;;;;;5010887;28;19917;-78
2020/12/08 13:08:42;;;;;;;;;;;5.50;99.90;;;;;;5007519;28;19943;-78
2020/12/08 13:11:08;;;;;;;;;;;5.60;99.90;;;;;;5013709;28;19968;-78
2020/12/08 13:13:34;;;;;;;;;;;5.60;99.90;;;;;;5023939;28;19925;-78
2020/12/08 13:16:01;;;;;;;;;;;5.60;99.90;;;;;;5028947;28;19921;-78
2020/12/08 13:18:27;;;;;;;;;;;5.60;99.90;;;;;;5032764;28;19917;-77
2020/12/08 13:20:53;;;;;;;;;;;5.60;99.90;;;;;;5010778;28;19944;-78
2020/12/08 13:23:19;;;;;;;;;;;5.60;99.90;;;;;;5011421;28;19917;-78
2020/12/08 13:25:46;;;;;;;;;;;5.60;99.90;;;;;;5027932;28;19918;-77
2020/12/08 13:28:12;;;;;;;;;;;5.60;99.90;;;;;;5036367;28;19917;-79
2020/12/08 13:30:37;;;;;;;;;;;5.60;99.90;;;;;;5028872;28;19964;-78
2020/12/08 13:33:03;;;;;;;;;;;5.60;99.90;;;;;;5022058;28;19925;-78
2020/12/08 13:35:30;;;;;;;;;;;5.60;99.90;;;;;;5027467;28;19924;-79
2020/12/08 13:37:55;;;;;;;;;;;5.60;99.90;;;;;;5022606;28;19925;-79
2020/12/08 13:40:21;;;;;;;;;;;5.60;99.90;;;;;;5028977;28;20404;-80
2020/12/08 13:42:47;;;;;;;;;;;5.60;99.90;;;;;;5042655;28;19924;-80
2020/12/08 13:45:13;;;;;;;;;;;5.60;99.90;;;;;;5022648;28;19997;-80
2020/12/08 13:47:38;;;;;;;;;;;5.50;99.90;;;;;;5018313;28;19917;-80
2020/12/08 13:50:05;;;;;;;;;;;5.50;99.90;;;;;;5040277;28;20340;-77
2020/12/08 13:52:32;;;;;;;;;;;5.50;99.90;;;;;;5031595;28;19924;-78
2020/12/08 13:54:58;;;;;;;;;;;5.60;99.90;;;;;;5026130;28;20308;-77
2020/12/08 13:57:26;;;;;;;;;;;5.60;99.90;;;;;;5000297;28;19967;-78
2020/12/08 13:59:52;;;;;;;;;;;5.60;99.90;;;;;;5014048;28;19917;-78
2020/12/08 14:02:17;;;;;;;;;;;5.60;99.90;;;;;;5013858;28;19963;-78
2020/12/08 14:04:43;;;;;;;;;;;5.60;99.90;;;;;;5019696;28;19968;-78
2020/12/08 14:07:09;;;;;;;;;;;5.60;99.90;;;;;;5041727;28;19988;-78
2020/12/08 14:09:35;;;;;;;;;;;5.70;99.90;;;;;;5047673;28;19917;-78
2020/12/08 14:12:01;;;;;;;;;;;5.70;99.90;;;;;;5019500;28;20388;-78
2020/12/08 14:14:27;;;;;;;;;;;5.70;99.90;;;;;;5015029;28;19917;-78
2020/12/08 14:16:56;;;;;;;;;;;5.60;99.90;;;;;;5031279;28;19960;-78
2020/12/08 14:19:21;;;;;;;;;;;5.60;99.90;;;;;;5019443;28;19928;-78
2020/12/08 14:21:47;;;;;;;;;;;5.70;99.90;;;;;;5014500;28;19917;-78
2020/12/08 14:24:25;;;;;;;;;;;5.60;99.90;;;;;;5020905;28;20377;-78
2020/12/08 14:26:52;;;;;;;;;;;5.60;99.90;;;;;;5016203;28;19917;-78
2020/12/08 14:29:17;;;;;;;;;;;5.60;99.90;;;;;;5037006;28;19945;-78
2020/12/08 14:31:43;;;;;;;;;;;5.60;99.90;;;;;;5018857;28;19921;-78
2020/12/08 14:34:09;;;;;;;;;;;5.60;99.90;;;;;;5028070;28;20385;-78
2020/12/08 14:36:34;;;;;;;;;;;5.60;99.90;;;;;;5011319;28;19918;-78